createdAt,value
2018-10-15T00:00:19.573Z,4.90
2018-10-15T00:02:47.903Z,4.37
2018-10-15T00:05:16.134Z,5.17
2018-10-15T00:07:44.677Z,5.83
2018-10-15T00:10:12.985Z,4.97
2018-10-15T00:12:41.084Z,5.13
2018-10-15T00:15:14.065Z,5.47
2018-10-15T00:17:42.115Z,4.40
2018-10-15T00:20:10.104Z,5.70
2018-10-15T00:22:38.098Z,5.10
2018-10-15T00:25:06.098Z,6.30
2018-10-15T00:27:34.126Z,5.80
2018-10-15T00:30:02.083Z,6.00
2018-10-15T00:32:30.475Z,5.47
2018-10-15T00:34:58.657Z,5.70
2018-10-15T00:37:26.802Z,5.70
2018-10-15T00:39:54.980Z,5.17
2018-10-15T00:42:23.233Z,5.63
2018-10-15T00:44:51.534Z,6.30
2018-10-15T00:47:20.207Z,5.33
2018-10-15T00:49:48.422Z,5.00
2018-10-15T00:52:16.508Z,5.37
2018-10-15T00:54:45.054Z,6.57
2018-10-15T00:57:13.253Z,5.40
2018-10-15T00:59:41.193Z,5.90
2018-10-15T01:02:09.302Z,5.23
2018-10-15T01:04:37.233Z,5.87
2018-10-15T01:07:05.301Z,5.80
2018-10-15T01:09:33.241Z,5.13
2018-10-15T01:12:01.247Z,5.80
2018-10-15T01:14:29.734Z,6.57
2018-10-15T01:16:58.084Z,6.20
2018-10-15T01:19:26.287Z,7.07
2018-10-15T01:21:54.955Z,7.10
2018-10-15T01:24:23.376Z,6.40
2018-10-15T01:26:51.862Z,6.00
2018-10-15T01:29:20.058Z,6.47
2018-10-15T01:31:48.363Z,5.57
2018-10-15T01:34:16.836Z,5.70
2018-10-15T01:36:45.115Z,6.40
2018-10-15T01:39:16.006Z,6.30
2018-10-15T01:41:44.833Z,5.40
2018-10-15T01:44:13.598Z,7.30
2018-10-15T01:46:41.755Z,6.80
2018-10-15T01:49:09.724Z,6.07
2018-10-15T01:51:37.698Z,5.70
2018-10-15T01:54:05.697Z,6.23
2018-10-15T01:56:33.630Z,6.90
2018-10-15T01:59:01.617Z,6.50
2018-10-15T02:01:29.741Z,7.17
2018-10-15T02:03:58.350Z,6.13
2018-10-15T02:06:26.727Z,6.00
2018-10-15T02:08:54.967Z,6.40
2018-10-15T02:11:23.386Z,6.53
2018-10-15T02:13:51.703Z,7.90
2018-10-15T02:16:20.106Z,5.90
2018-10-15T02:18:48.625Z,7.33
2018-10-15T02:21:16.825Z,6.90
2018-10-15T02:23:44.861Z,7.23
2018-10-15T02:26:12.806Z,6.73
2018-10-15T02:28:40.778Z,6.97
2018-10-15T02:31:08.771Z,7.00
2018-10-15T02:33:36.795Z,8.93
2018-10-15T02:36:04.799Z,8.00
2018-10-15T02:38:32.797Z,6.57
2018-10-15T02:41:00.932Z,8.00
2018-10-15T02:43:29.300Z,7.83
2018-10-15T02:45:57.416Z,6.90
2018-10-15T02:48:25.622Z,6.40
2018-10-15T02:50:53.841Z,7.63
2018-10-15T02:53:22.252Z,8.90
2018-10-15T02:55:50.590Z,6.90
2018-10-15T02:58:18.931Z,7.40
2018-10-15T03:00:47.388Z,7.37
2018-10-15T03:03:15.501Z,7.50
2018-10-15T03:05:43.467Z,6.40
2018-10-15T03:08:11.553Z,7.27
2018-10-15T03:10:39.538Z,7.30
2018-10-15T03:13:07.487Z,6.37
2018-10-15T03:15:36.189Z,6.83
2018-10-15T03:18:04.295Z,7.90
2018-10-15T03:20:32.251Z,8.27
2018-10-15T03:23:00.384Z,8.10
2018-10-15T03:25:28.443Z,8.30
2018-10-15T03:27:56.527Z,7.80
2018-10-15T03:30:24.708Z,8.60
2018-10-15T03:32:52.915Z,8.77
2018-10-15T03:35:21.355Z,8.37
2018-10-15T03:37:49.627Z,7.97
2018-10-15T03:40:17.896Z,8.83
2018-10-15T03:42:46.042Z,8.30
2018-10-15T03:45:14.239Z,6.97
2018-10-15T03:47:42.224Z,8.00
2018-10-15T03:50:10.424Z,8.97
2018-10-15T03:52:38.459Z,7.50
2018-10-15T03:55:06.542Z,8.70
2018-10-15T03:57:34.498Z,23.20
2018-10-15T04:00:02.536Z,10.00
2018-10-15T04:02:30.740Z,8.77
2018-10-15T04:04:58.694Z,8.30
2018-10-15T04:07:26.735Z,7.57
2018-10-15T04:09:54.975Z,7.77
2018-10-15T04:12:23.190Z,8.40
2018-10-15T04:14:51.637Z,7.70
2018-10-15T04:17:20.034Z,8.77
2018-10-15T04:19:48.275Z,8.33
2018-10-15T04:22:16.469Z,9.00
2018-10-15T04:24:44.624Z,8.50
2018-10-15T04:27:12.656Z,9.77
2018-10-15T04:29:40.665Z,8.77
2018-10-15T04:32:08.706Z,8.17
2018-10-15T04:34:36.754Z,7.70
2018-10-15T04:37:04.731Z,9.27
2018-10-15T04:39:32.669Z,10.20
2018-10-15T04:42:00.811Z,9.10
2018-10-15T04:44:29.040Z,16.67
2018-10-15T04:46:57.144Z,9.67
2018-10-15T04:49:25.510Z,9.57
2018-10-15T04:51:53.505Z,10.13
2018-10-15T04:54:21.987Z,9.30
2018-10-15T04:56:50.171Z,8.90
2018-10-15T04:59:18.541Z,6.93
2018-10-15T05:01:47.306Z,8.93
2018-10-15T05:04:15.708Z,8.60
2018-10-15T05:06:43.834Z,8.23
2018-10-15T05:09:11.772Z,7.73
2018-10-15T05:11:39.878Z,9.53
2018-10-15T05:14:08.685Z,9.90
2018-10-15T05:16:37.007Z,8.73
2018-10-15T05:19:04.966Z,9.23
2018-10-15T05:21:33.274Z,8.83
2018-10-15T05:24:01.500Z,8.40
2018-10-15T05:26:29.735Z,8.67
2018-10-15T05:28:57.866Z,8.70
2018-10-15T05:31:26.027Z,8.93
2018-10-15T05:33:54.381Z,9.10
2018-10-15T05:36:23.048Z,8.50
2018-10-15T05:38:51.283Z,8.57
2018-10-15T05:41:19.801Z,9.40
2018-10-15T05:43:48.888Z,8.10
2018-10-15T05:46:17.261Z,14.00
2018-10-15T05:48:45.354Z,8.80
2018-10-15T05:51:13.321Z,8.20
2018-10-15T05:53:41.453Z,8.97
2018-10-15T05:56:09.654Z,8.40
2018-10-15T05:58:37.687Z,7.70
2018-10-15T06:01:05.715Z,8.47
2018-10-15T06:03:33.752Z,8.63
2018-10-15T06:06:01.866Z,10.10
2018-10-15T06:08:31.775Z,9.57
2018-10-15T06:10:59.940Z,8.93
2018-10-15T06:13:28.681Z,10.13
2018-10-15T06:15:59.206Z,11.10
2018-10-15T06:18:27.240Z,10.63
2018-10-15T06:20:55.410Z,10.10
2018-10-15T06:23:31.805Z,10.63
2018-10-15T06:26:01.167Z,9.37
2018-10-15T06:28:29.491Z,9.80
2018-10-15T06:30:58.004Z,10.83
2018-10-15T06:33:26.540Z,10.20
2018-10-15T06:35:54.881Z,9.77
2018-10-15T06:38:23.097Z,10.50
2018-10-15T06:40:51.372Z,11.00
2018-10-15T06:43:21.005Z,9.40
2018-10-15T06:45:49.625Z,9.70
2018-10-15T06:48:19.984Z,9.13
2018-10-15T06:50:48.635Z,9.50
2018-10-15T06:53:18.510Z,9.50
2018-10-15T06:55:49.343Z,10.00
2018-10-15T06:58:20.349Z,14.00
2018-10-15T07:00:49.212Z,10.70
2018-10-15T07:03:20.131Z,11.13
2018-10-15T07:05:48.682Z,10.40
2018-10-15T07:10:58.906Z,9.73
2018-10-15T07:13:27.838Z,10.00
2018-10-15T07:16:08.084Z,9.90
2018-10-15T07:18:36.334Z,10.30
2018-10-15T07:21:04.822Z,12.90
2018-10-15T07:23:33.485Z,11.03
2018-10-15T07:26:01.600Z,12.37
2018-10-15T07:33:48.350Z,8.93
2018-10-15T07:36:17.052Z,10.83
2018-10-15T07:38:45.449Z,10.33
2018-10-15T07:41:13.867Z,9.80
2018-10-15T07:46:31.741Z,9.37
2018-10-15T07:48:59.905Z,10.00
2018-10-15T07:51:28.211Z,10.63
2018-10-15T07:54:03.586Z,10.70
2018-10-15T07:56:31.702Z,10.30
2018-10-15T07:58:59.939Z,10.90
2018-10-15T08:01:29.170Z,8.83
2018-10-15T08:03:57.564Z,10.10
2018-10-15T08:06:26.361Z,8.43
2018-10-15T08:08:55.800Z,13.13
2018-10-15T08:11:24.357Z,9.60
2018-10-15T08:13:52.686Z,13.27
2018-10-15T08:16:21.495Z,10.00
2018-10-15T08:18:49.913Z,9.13
2018-10-15T08:21:18.828Z,9.37
2018-10-15T08:23:47.723Z,10.60
2018-10-15T08:26:16.312Z,9.20
2018-10-15T08:28:44.985Z,8.60
2018-10-15T08:31:13.811Z,9.30
2018-10-15T08:33:45.556Z,11.50
2018-10-15T08:36:14.424Z,9.37
2018-10-15T08:38:42.625Z,9.53
2018-10-15T08:41:11.239Z,8.83
2018-10-15T08:43:39.476Z,9.20
2018-10-15T08:46:08.905Z,10.80
2018-10-15T08:48:36.985Z,9.17
2018-10-15T08:51:05.838Z,11.40
2018-10-15T08:53:33.958Z,9.53
2018-10-15T08:56:02.170Z,9.23
2018-10-15T08:58:30.906Z,9.57
2018-10-15T09:00:59.130Z,8.70
2018-10-15T09:03:28.067Z,14.00
2018-10-15T09:06:02.667Z,9.63
2018-10-15T09:08:31.349Z,9.80
2018-10-15T09:10:59.579Z,9.40
2018-10-15T09:13:29.142Z,8.70
2018-10-15T09:15:57.941Z,9.77
2018-10-15T09:18:26.324Z,10.57
2018-10-15T09:20:54.726Z,9.23
2018-10-15T09:23:23.260Z,11.40
2018-10-15T09:25:51.956Z,8.57
2018-10-15T09:28:20.181Z,8.37
2018-10-15T09:33:21.819Z,9.17
2018-10-15T09:35:51.932Z,7.77
2018-10-15T09:38:20.452Z,9.33
2018-10-15T09:40:49.036Z,7.53
2018-10-15T09:43:18.298Z,7.57
2018-10-15T09:45:47.116Z,9.20
2018-10-15T09:48:15.319Z,8.00
2018-10-15T09:50:44.934Z,9.53
2018-10-15T09:53:14.472Z,7.70
2018-10-15T09:55:43.238Z,7.70
2018-10-15T09:58:11.320Z,8.70
2018-10-15T10:00:44.807Z,7.43
2018-10-15T10:03:13.771Z,7.43
2018-10-15T10:05:41.902Z,6.40
2018-10-15T10:08:10.089Z,7.60
2018-10-15T10:10:38.185Z,7.20
2018-10-15T10:13:06.459Z,6.60
2018-10-15T10:15:34.593Z,7.87
2018-10-15T10:18:02.853Z,6.90
2018-10-15T10:20:30.923Z,7.40
2018-10-15T10:22:59.368Z,7.30
2018-10-15T10:25:27.744Z,6.50
2018-10-15T10:27:56.090Z,7.83
2018-10-15T10:30:24.242Z,7.13
2018-10-15T10:32:52.842Z,6.43
2018-10-15T10:35:42.296Z,6.87
2018-10-15T10:38:11.210Z,7.20
2018-10-15T10:40:39.240Z,7.10
2018-10-15T10:43:07.811Z,6.60
2018-10-15T10:45:36.091Z,7.50
2018-10-15T10:48:04.234Z,6.63
2018-10-15T10:50:34.369Z,7.13
2018-10-15T10:53:02.520Z,5.77
2018-10-15T10:55:30.783Z,6.23
2018-10-15T10:58:10.937Z,6.20
2018-10-15T11:00:45.622Z,7.53
2018-10-15T11:03:14.055Z,6.20
2018-10-15T11:05:43.612Z,6.67
2018-10-15T11:08:11.999Z,7.13
2018-10-15T11:10:40.673Z,6.67
2018-10-15T11:15:46.670Z,5.63
2018-10-15T11:18:14.958Z,8.00
2018-10-15T11:20:44.101Z,7.17
2018-10-15T11:23:12.273Z,6.63
2018-10-15T11:25:41.753Z,6.70
2018-10-15T11:30:48.567Z,6.40
2018-10-15T11:33:17.033Z,7.60
2018-10-15T11:35:48.624Z,5.83
2018-10-15T11:38:22.829Z,6.70
2018-10-15T11:40:51.739Z,6.80
2018-10-15T11:43:20.998Z,6.13
2018-10-15T11:48:30.894Z,6.43
2018-10-15T11:50:59.421Z,6.83
2018-10-15T11:53:27.908Z,6.37
2018-10-15T11:55:56.639Z,6.03
2018-10-15T11:58:26.462Z,7.40
2018-10-15T12:00:54.943Z,5.97
2018-10-15T12:03:23.253Z,6.03
2018-10-15T12:05:51.846Z,6.30
2018-10-15T12:08:22.054Z,7.00
2018-10-15T12:10:50.924Z,6.00
2018-10-15T12:13:19.694Z,6.70
2018-10-15T12:15:48.555Z,6.33
2018-10-15T12:18:17.407Z,6.90
2018-10-15T12:20:49.928Z,7.20
2018-10-15T12:23:18.255Z,6.30
2018-10-15T12:25:47.354Z,6.27
2018-10-15T12:28:16.014Z,5.60
2018-10-15T12:30:44.427Z,5.83
2018-10-15T12:33:13.099Z,6.03
2018-10-15T12:35:41.282Z,6.40
2018-10-15T12:38:10.410Z,6.20
2018-10-15T12:40:38.529Z,6.70
2018-10-15T12:43:06.843Z,6.63
2018-10-15T12:45:40.289Z,5.43
2018-10-15T12:48:13.902Z,7.10
2018-10-15T12:50:45.220Z,7.00
2018-10-15T12:53:14.848Z,8.07
2018-10-15T12:55:43.342Z,6.53
2018-10-15T12:58:19.885Z,5.83
2018-10-15T13:00:48.433Z,6.50
2018-10-15T13:03:16.742Z,6.53
2018-10-15T13:05:52.004Z,6.10
2018-10-15T13:08:20.967Z,6.20
2018-10-15T13:10:49.727Z,7.10
2018-10-15T13:15:53.544Z,7.43
2018-10-15T13:18:22.567Z,6.97
2018-10-15T13:20:51.330Z,6.17
2018-10-15T13:23:20.749Z,6.47
2018-10-15T13:25:49.802Z,6.93
2018-10-15T13:28:17.968Z,5.60
2018-10-15T13:30:46.670Z,5.77
2018-10-15T13:33:15.206Z,6.67
2018-10-15T13:35:43.170Z,5.83
2018-10-15T13:38:11.318Z,6.63
2018-10-15T13:40:42.437Z,6.40
2018-10-15T13:43:10.705Z,6.90
2018-10-15T13:45:39.033Z,6.23
2018-10-15T13:48:07.338Z,6.53
2018-10-15T13:50:36.787Z,6.03
2018-10-15T13:53:05.592Z,5.47
2018-10-15T13:55:34.441Z,5.60
2018-10-15T14:00:44.199Z,6.50
2018-10-15T14:03:13.692Z,6.70
2018-10-15T14:05:42.528Z,6.10
2018-10-15T14:08:10.649Z,5.90
2018-10-15T14:10:38.921Z,6.30
2018-10-15T14:13:09.568Z,6.23
2018-10-15T14:15:39.267Z,7.90
2018-10-15T14:18:08.214Z,6.57
2018-10-15T14:20:36.411Z,6.77
2018-10-15T14:25:48.281Z,6.53
2018-10-15T14:28:16.719Z,6.03
2018-10-15T14:30:45.136Z,6.90
2018-10-15T14:33:13.397Z,7.47
2018-10-15T14:35:43.102Z,6.73
2018-10-15T14:38:13.156Z,6.20
2018-10-15T14:40:41.192Z,6.10
2018-10-15T14:43:09.348Z,5.27
2018-10-15T14:45:37.801Z,6.80
2018-10-15T14:48:06.284Z,6.57
2018-10-15T14:50:34.365Z,6.43
2018-10-15T14:53:02.569Z,6.53
2018-10-15T14:55:30.853Z,6.70
2018-10-15T14:57:59.444Z,6.83
2018-10-15T15:00:28.106Z,6.67
2018-10-15T15:02:56.513Z,7.33
2018-10-15T15:05:26.104Z,7.70
2018-10-15T15:07:55.472Z,6.90
2018-10-15T15:10:29.389Z,8.03
2018-10-15T15:13:03.133Z,8.80
2018-10-15T15:15:32.037Z,7.53
2018-10-15T15:18:00.208Z,7.63
2018-10-15T15:20:28.831Z,7.70
2018-10-15T15:22:57.543Z,8.00
2018-10-15T15:25:25.872Z,8.03
2018-10-15T15:27:54.621Z,8.00
2018-10-15T15:32:57.039Z,8.40
2018-10-15T15:35:25.668Z,8.23
2018-10-15T15:37:54.560Z,8.50
2018-10-15T15:40:24.092Z,8.57
2018-10-15T15:42:52.663Z,8.20
2018-10-15T15:45:22.189Z,9.07
2018-10-15T15:47:51.018Z,9.00
2018-10-15T15:50:23.722Z,7.67
2018-10-15T15:52:52.078Z,9.17
2018-10-15T15:55:20.543Z,8.83
2018-10-15T15:57:49.205Z,9.57
2018-10-15T16:00:18.170Z,9.20
2018-10-15T16:02:46.402Z,9.13
2018-10-15T16:05:15.402Z,8.57
2018-10-15T16:07:53.251Z,9.20
2018-10-15T16:10:21.865Z,9.80
2018-10-15T16:12:50.684Z,9.23
2018-10-15T16:15:19.105Z,9.60
2018-10-15T16:17:50.360Z,10.40
2018-10-15T16:20:21.317Z,9.03
2018-10-15T16:22:50.335Z,10.63
2018-10-15T16:25:18.632Z,8.77
2018-10-15T16:27:47.418Z,8.27
2018-10-15T16:30:16.351Z,11.40
2018-10-15T16:32:49.776Z,8.70
2018-10-15T16:35:18.001Z,9.13
2018-10-15T16:37:46.280Z,9.60
2018-10-15T16:40:15.713Z,9.57
2018-10-15T16:42:43.818Z,9.13
2018-10-15T16:45:13.307Z,10.17
2018-10-15T16:47:42.578Z,9.20
2018-10-15T16:50:16.792Z,9.80
2018-10-15T16:52:45.530Z,9.73
2018-10-15T16:55:15.070Z,9.50
2018-10-15T16:57:43.458Z,9.60
2018-10-15T17:00:12.655Z,9.07
2018-10-15T17:02:41.740Z,10.63
2018-10-15T17:05:11.523Z,11.90
2018-10-15T17:07:39.846Z,10.80
2018-10-15T17:10:09.514Z,9.90
2018-10-15T17:12:37.651Z,11.90
2018-10-15T17:15:08.930Z,9.90
2018-10-15T17:17:37.515Z,10.77
2018-10-15T17:20:06.071Z,10.93
2018-10-15T17:22:39.559Z,11.93
2018-10-15T17:25:08.122Z,10.17
2018-10-15T17:27:36.244Z,10.57
2018-10-15T17:30:04.845Z,10.93
2018-10-15T17:32:34.824Z,10.60
2018-10-15T17:35:03.274Z,10.73
2018-10-15T17:37:31.673Z,10.60
2018-10-15T17:39:59.774Z,11.50
2018-10-15T17:42:28.455Z,11.37
2018-10-15T17:44:57.917Z,9.60
2018-10-15T17:47:27.614Z,10.67
2018-10-15T17:49:56.017Z,10.20
2018-10-15T17:52:25.662Z,12.63
2018-10-15T17:54:54.779Z,10.60
2018-10-15T17:57:22.995Z,10.33
2018-10-15T17:59:51.652Z,10.17
2018-10-15T18:02:19.924Z,10.90
2018-10-15T18:04:48.099Z,10.50
2018-10-15T18:07:17.471Z,11.57
2018-10-15T18:09:45.700Z,11.73
2018-10-15T18:12:14.156Z,10.90
2018-10-15T18:14:42.384Z,11.17
2018-10-15T18:17:10.638Z,11.70
2018-10-15T18:19:38.845Z,11.70
2018-10-15T18:22:07.291Z,11.37
2018-10-15T18:24:35.538Z,11.13
2018-10-15T18:27:03.781Z,11.40
2018-10-15T18:29:32.060Z,10.97
2018-10-15T18:32:00.259Z,12.47
2018-10-15T18:34:28.530Z,13.10
2018-10-15T18:36:56.680Z,12.70
2018-10-15T18:39:25.577Z,11.57
2018-10-15T18:41:54.037Z,11.80
2018-10-15T18:44:22.274Z,12.50
2018-10-15T18:46:51.699Z,12.73
2018-10-15T18:49:20.207Z,11.60
2018-10-15T18:51:49.932Z,13.40
2018-10-15T18:54:18.016Z,13.67
2018-10-15T18:56:46.433Z,13.33
2018-10-15T18:59:18.717Z,13.00
2018-10-15T19:01:47.082Z,12.50
2018-10-15T19:04:15.581Z,13.47
2018-10-15T19:06:44.516Z,13.20
2018-10-15T19:09:12.772Z,14.30
2018-10-15T19:11:41.201Z,14.03
2018-10-15T19:14:09.915Z,12.80
2018-10-15T19:16:38.021Z,14.93
2018-10-15T19:19:06.537Z,14.40
2018-10-15T19:21:34.980Z,13.20
2018-10-15T19:24:03.402Z,13.10
2018-10-15T19:26:32.048Z,13.97
2018-10-15T19:29:00.226Z,13.50
2018-10-15T19:31:28.818Z,13.43
2018-10-15T19:33:57.929Z,12.33
2018-10-15T19:36:26.162Z,12.47
2018-10-15T19:38:55.642Z,12.53
2018-10-15T19:41:24.342Z,12.10
2018-10-15T19:43:52.419Z,12.10
2018-10-15T19:46:20.793Z,11.70
2018-10-15T19:48:49.664Z,13.23
2018-10-15T19:51:19.547Z,13.20
2018-10-15T19:53:49.121Z,11.90
2018-10-15T19:56:17.235Z,12.50
2018-10-15T19:58:45.403Z,11.83
2018-10-15T20:01:13.701Z,14.00
2018-10-15T20:03:41.907Z,13.97
2018-10-15T20:06:10.058Z,15.10
2018-10-15T20:08:38.903Z,14.07
2018-10-15T20:11:07.098Z,14.60
2018-10-15T20:13:35.074Z,14.00
2018-10-15T20:16:03.570Z,14.50
2018-10-15T20:18:31.931Z,14.03
2018-10-15T20:21:01.457Z,15.07
2018-10-15T20:23:29.945Z,14.40
2018-10-15T20:25:59.013Z,14.60
2018-10-15T20:28:28.177Z,14.60
2018-10-15T20:31:02.520Z,12.80
2018-10-15T20:33:31.361Z,13.70
2018-10-15T20:35:59.947Z,12.60
2018-10-15T20:38:28.649Z,15.07
2018-10-15T20:40:57.689Z,14.60
2018-10-15T20:43:27.950Z,15.13
2018-10-15T20:45:58.810Z,14.27
2018-10-15T20:48:27.014Z,16.40
2018-10-15T20:50:55.702Z,16.93
2018-10-15T20:53:24.060Z,17.47
2018-10-15T20:55:52.485Z,16.07
2018-10-15T20:58:21.738Z,19.03
2018-10-15T21:00:51.536Z,15.87
2018-10-15T21:03:20.103Z,15.27
2018-10-15T21:05:48.557Z,15.80
2018-10-15T21:08:20.209Z,16.90
2018-10-15T21:10:48.366Z,16.33
2018-10-15T21:13:16.484Z,17.87
2018-10-15T21:15:44.500Z,16.37
2018-10-15T21:18:12.945Z,15.27
2018-10-15T21:20:40.969Z,18.10
2018-10-15T21:23:08.941Z,15.63
2018-10-15T21:25:36.967Z,16.67
2018-10-15T21:28:05.236Z,16.17
2018-10-15T21:30:33.186Z,15.87
2018-10-15T21:33:01.189Z,16.43
2018-10-15T21:35:29.425Z,16.50
2018-10-15T21:37:57.597Z,15.67
2018-10-15T21:40:25.849Z,15.47
2018-10-15T21:42:53.917Z,17.87
2018-10-15T21:45:22.773Z,15.50
2018-10-15T21:47:51.347Z,16.13
2018-10-15T21:50:20.119Z,15.67
2018-10-15T21:52:48.130Z,14.00
2018-10-15T21:55:16.391Z,19.07
2018-10-15T21:57:44.651Z,17.60
2018-10-15T22:00:14.154Z,17.73
2018-10-15T22:02:42.589Z,17.43
2018-10-15T22:05:10.768Z,15.37
2018-10-15T22:07:39.796Z,14.33
2018-10-15T22:10:13.208Z,15.53
2018-10-15T22:12:42.181Z,20.17
2018-10-15T22:15:11.500Z,16.30
2018-10-15T22:17:40.038Z,18.50
2018-10-15T22:20:09.209Z,17.07
2018-10-15T22:22:37.657Z,18.17
2018-10-15T22:25:06.188Z,17.33
2018-10-15T22:27:34.145Z,16.50
2018-10-15T22:30:02.225Z,17.30
2018-10-15T22:32:30.511Z,18.57
2018-10-15T22:34:58.613Z,17.53
2018-10-15T22:37:27.137Z,18.30
2018-10-15T22:39:55.858Z,18.17
2018-10-15T22:42:24.052Z,20.20
2018-10-15T22:44:52.273Z,19.00
2018-10-15T22:47:20.450Z,19.70
2018-10-15T22:49:48.655Z,20.47
2018-10-15T22:52:16.590Z,20.90
2018-10-15T22:54:44.893Z,18.40
2018-10-15T22:57:12.893Z,18.97
2018-10-15T22:59:40.910Z,17.70
2018-10-15T23:02:10.152Z,19.40
2018-10-15T23:04:38.407Z,18.90
2018-10-15T23:07:07.129Z,18.03
2018-10-15T23:09:35.128Z,19.80
2018-10-15T23:12:03.084Z,20.10
2018-10-15T23:14:31.171Z,16.43
2018-10-15T23:16:59.291Z,18.43
2018-10-15T23:19:27.344Z,19.60
2018-10-15T23:21:55.473Z,19.23
2018-10-15T23:24:23.853Z,20.73
2018-10-15T23:26:52.670Z,18.63
2018-10-15T23:29:20.782Z,18.10
2018-10-15T23:31:48.928Z,17.77
2018-10-15T23:34:17.093Z,16.63
2018-10-15T23:36:45.201Z,19.07
2018-10-15T23:39:13.898Z,18.03
2018-10-15T23:41:41.969Z,17.73
2018-10-15T23:44:09.945Z,18.37
2018-10-15T23:46:37.876Z,16.43
2018-10-15T23:49:05.866Z,18.33
2018-10-15T23:51:33.943Z,19.27
2018-10-15T23:54:01.869Z,18.77
2018-10-15T23:56:30.043Z,18.47
2018-10-15T23:58:58.171Z,18.63
